sensor_id;sensor_type;location;lat;lon;timestamp;P1;durP1;ratioP1;P2;durP2;ratioP2
39156;SDS011;24889;42.424;25.604;2022-11-21T00:01:13;42.35;;;10.20;;
39156;SDS011;24889;42.424;25.604;2022-11-21T00:03:39;40.72;;;12.52;;
39156;SDS011;24889;42.424;25.604;2022-11-21T00:06:05;47.20;;;10.03;;
39156;SDS011;24889;42.424;25.604;2022-11-21T00:08:30;47.03;;;11.40;;
39156;SDS011;24889;42.424;25.604;2022-11-21T00:10:57;43.83;;;10.30;;
39156;SDS011;24889;42.424;25.604;2022-11-21T00:13:22;41.47;;;10.07;;
39156;SDS011;24889;42.424;25.604;2022-11-21T00:15:48;34.40;;;9.57;;
39156;SDS011;24889;42.424;25.604;2022-11-21T00:18:13;32.17;;;9.03;;
39156;SDS011;24889;42.424;25.604;2022-11-21T00:20:39;33.40;;;8.80;;
39156;SDS011;24889;42.424;25.604;2022-11-21T00:23:04;43.08;;;9.15;;
39156;SDS011;24889;42.424;25.604;2022-11-21T00:25:30;42.65;;;8.93;;
39156;SDS011;24889;42.424;25.604;2022-11-21T00:27:55;27.63;;;8.70;;
39156;SDS011;24889;42.424;25.604;2022-11-21T00:30:21;38.73;;;9.90;;
39156;SDS011;24889;42.424;25.604;2022-11-21T00:32:46;42.57;;;12.07;;
39156;SDS011;24889;42.424;25.604;2022-11-21T00:35:11;49.33;;;11.20;;
39156;SDS011;24889;42.424;25.604;2022-11-21T00:37:37;30.63;;;9.93;;
39156;SDS011;24889;42.424;25.604;2022-11-21T00:40:02;32.70;;;9.97;;
39156;SDS011;24889;42.424;25.604;2022-11-21T00:42:28;33.60;;;9.67;;
39156;SDS011;24889;42.424;25.604;2022-11-21T00:44:53;40.67;;;10.70;;
39156;SDS011;24889;42.424;25.604;2022-11-21T00:47:18;42.37;;;10.90;;
39156;SDS011;24889;42.424;25.604;2022-11-21T00:49:43;34.53;;;9.07;;
39156;SDS011;24889;42.424;25.604;2022-11-21T00:52:09;47.57;;;10.77;;
39156;SDS011;24889;42.424;25.604;2022-11-21T00:54:34;29.80;;;9.32;;
39156;SDS011;24889;42.424;25.604;2022-11-21T00:57:00;29.97;;;7.43;;
39156;SDS011;24889;42.424;25.604;2022-11-21T00:59:25;26.40;;;6.23;;
39156;SDS011;24889;42.424;25.604;2022-11-21T01:01:50;37.10;;;8.27;;
39156;SDS011;24889;42.424;25.604;2022-11-21T01:04:15;24.77;;;6.70;;
39156;SDS011;24889;42.424;25.604;2022-11-21T01:06:41;31.67;;;7.57;;
39156;SDS011;24889;42.424;25.604;2022-11-21T01:09:06;26.43;;;5.83;;
39156;SDS011;24889;42.424;25.604;2022-11-21T01:11:31;27.80;;;6.87;;
39156;SDS011;24889;42.424;25.604;2022-11-21T01:13:57;25.57;;;5.67;;
39156;SDS011;24889;42.424;25.604;2022-11-21T01:16:23;28.33;;;6.50;;
39156;SDS011;24889;42.424;25.604;2022-11-21T01:18:50;25.45;;;7.47;;
39156;SDS011;24889;42.424;25.604;2022-11-21T01:21:18;34.23;;;5.93;;
39156;SDS011;24889;42.424;25.604;2022-11-21T01:23:44;32.78;;;6.72;;
39156;SDS011;24889;42.424;25.604;2022-11-21T01:26:13;65.47;;;9.27;;
39156;SDS011;24889;42.424;25.604;2022-11-21T01:28:39;32.85;;;8.20;;
39156;SDS011;24889;42.424;25.604;2022-11-21T01:31:05;24.73;;;8.00;;
39156;SDS011;24889;42.424;25.604;2022-11-21T01:33:32;36.92;;;10.32;;
39156;SDS011;24889;42.424;25.604;2022-11-21T01:36:04;37.55;;;10.20;;
39156;SDS011;24889;42.424;25.604;2022-11-21T01:38:29;37.25;;;11.57;;
39156;SDS011;24889;42.424;25.604;2022-11-21T01:40:54;38.80;;;9.67;;
39156;SDS011;24889;42.424;25.604;2022-11-21T01:43:20;51.17;;;12.10;;
39156;SDS011;24889;42.424;25.604;2022-11-21T01:46:30;39.27;;;11.37;;
39156;SDS011;24889;42.424;25.604;2022-11-21T01:48:36;37.92;;;10.30;;
39156;SDS011;24889;42.424;25.604;2022-11-21T01:51:05;38.95;;;11.13;;
39156;SDS011;24889;42.424;25.604;2022-11-21T01:53:32;39.03;;;10.77;;
39156;SDS011;24889;42.424;25.604;2022-11-21T01:55:57;39.10;;;9.85;;
39156;SDS011;24889;42.424;25.604;2022-11-21T01:58:22;32.57;;;10.60;;
39156;SDS011;24889;42.424;25.604;2022-11-21T02:00:48;39.97;;;9.93;;
39156;SDS011;24889;42.424;25.604;2022-11-21T02:03:14;44.80;;;11.32;;
39156;SDS011;24889;42.424;25.604;2022-11-21T02:05:41;36.40;;;9.35;;
39156;SDS011;24889;42.424;25.604;2022-11-21T02:08:13;42.87;;;12.97;;
39156;SDS011;24889;42.424;25.604;2022-11-21T02:10:40;39.70;;;10.20;;
39156;SDS011;24889;42.424;25.604;2022-11-21T02:13:09;38.78;;;8.85;;
39156;SDS011;24889;42.424;25.604;2022-11-21T02:15:35;37.80;;;9.25;;
39156;SDS011;24889;42.424;25.604;2022-11-21T02:18:00;44.47;;;9.37;;
39156;SDS011;24889;42.424;25.604;2022-11-21T02:20:27;35.93;;;8.33;;
39156;SDS011;24889;42.424;25.604;2022-11-21T02:25:37;44.70;;;11.02;;
39156;SDS011;24889;42.424;25.604;2022-11-21T02:28:21;37.13;;;8.50;;
39156;SDS011;24889;42.424;25.604;2022-11-21T02:30:48;35.78;;;7.55;;
39156;SDS011;24889;42.424;25.604;2022-11-21T02:33:14;25.23;;;7.67;;
39156;SDS011;24889;42.424;25.604;2022-11-21T02:35:39;30.33;;;6.97;;
39156;SDS011;24889;42.424;25.604;2022-11-21T02:38:19;32.07;;;7.93;;
39156;SDS011;24889;42.424;25.604;2022-11-21T02:40:47;30.85;;;6.93;;
39156;SDS011;24889;42.424;25.604;2022-11-21T02:43:24;33.90;;;6.40;;
39156;SDS011;24889;42.424;25.604;2022-11-21T02:45:52;21.75;;;4.60;;
39156;SDS011;24889;42.424;25.604;2022-11-21T02:48:17;21.53;;;4.73;;
39156;SDS011;24889;42.424;25.604;2022-11-21T02:50:43;22.57;;;5.53;;
39156;SDS011;24889;42.424;25.604;2022-11-21T02:53:10;18.90;;;6.00;;
39156;SDS011;24889;42.424;25.604;2022-11-21T02:55:36;24.70;;;5.22;;
39156;SDS011;24889;42.424;25.604;2022-11-21T02:58:02;19.63;;;5.25;;
39156;SDS011;24889;42.424;25.604;2022-11-21T03:00:28;20.08;;;5.82;;
39156;SDS011;24889;42.424;25.604;2022-11-21T03:02:53;29.33;;;6.20;;
39156;SDS011;24889;42.424;25.604;2022-11-21T03:10:10;23.30;;;5.43;;
39156;SDS011;24889;42.424;25.604;2022-11-21T03:12:39;30.33;;;6.60;;
39156;SDS011;24889;42.424;25.604;2022-11-21T03:15:05;25.50;;;5.57;;
39156;SDS011;24889;42.424;25.604;2022-11-21T03:17:31;21.02;;;5.18;;
39156;SDS011;24889;42.424;25.604;2022-11-21T03:19:56;19.77;;;5.67;;
39156;SDS011;24889;42.424;25.604;2022-11-21T03:22:22;29.03;;;7.63;;
39156;SDS011;24889;42.424;25.604;2022-11-21T03:24:47;19.52;;;4.97;;
39156;SDS011;24889;42.424;25.604;2022-11-21T03:27:13;19.63;;;5.80;;
39156;SDS011;24889;42.424;25.604;2022-11-21T03:29:38;21.27;;;4.87;;
39156;SDS011;24889;42.424;25.604;2022-11-21T03:32:03;19.30;;;4.50;;
39156;SDS011;24889;42.424;25.604;2022-11-21T03:34:29;14.00;;;3.77;;
39156;SDS011;24889;42.424;25.604;2022-11-21T03:36:54;16.93;;;4.03;;
39156;SDS011;24889;42.424;25.604;2022-11-21T03:39:19;14.13;;;3.30;;
39156;SDS011;24889;42.424;25.604;2022-11-21T03:41:44;13.50;;;3.83;;
39156;SDS011;24889;42.424;25.604;2022-11-21T03:44:10;16.97;;;3.37;;
39156;SDS011;24889;42.424;25.604;2022-11-21T03:46:40;15.80;;;3.38;;
39156;SDS011;24889;42.424;25.604;2022-11-21T03:49:05;9.85;;;3.45;;
39156;SDS011;24889;42.424;25.604;2022-11-21T03:51:31;14.33;;;4.13;;
39156;SDS011;24889;42.424;25.604;2022-11-21T03:53:56;10.73;;;3.63;;
39156;SDS011;24889;42.424;25.604;2022-11-21T03:56:21;11.70;;;3.30;;
39156;SDS011;24889;42.424;25.604;2022-11-21T03:58:47;11.90;;;3.10;;
39156;SDS011;24889;42.424;25.604;2022-11-21T04:01:12;10.87;;;3.20;;
39156;SDS011;24889;42.424;25.604;2022-11-21T04:08:29;12.50;;;3.83;;
39156;SDS011;24889;42.424;25.604;2022-11-21T04:10:55;12.97;;;6.37;;
39156;SDS011;24889;42.424;25.604;2022-11-21T04:13:20;20.13;;;7.93;;
39156;SDS011;24889;42.424;25.604;2022-11-21T04:15:46;13.85;;;5.35;;
39156;SDS011;24889;42.424;25.604;2022-11-21T04:18:11;11.50;;;5.23;;
39156;SDS011;24889;42.424;25.604;2022-11-21T04:20:37;12.00;;;4.50;;
39156;SDS011;24889;42.424;25.604;2022-11-21T04:23:02;8.77;;;2.80;;
39156;SDS011;24889;42.424;25.604;2022-11-21T04:25:28;13.60;;;7.30;;
39156;SDS011;24889;42.424;25.604;2022-11-21T04:28:00;20.20;;;6.70;;
39156;SDS011;24889;42.424;25.604;2022-11-21T04:30:26;14.63;;;4.05;;
39156;SDS011;24889;42.424;25.604;2022-11-21T04:32:52;12.15;;;4.03;;
39156;SDS011;24889;42.424;25.604;2022-11-21T04:35:17;12.27;;;4.95;;
39156;SDS011;24889;42.424;25.604;2022-11-21T04:37:42;10.23;;;4.80;;
39156;SDS011;24889;42.424;25.604;2022-11-21T04:40:08;12.60;;;5.30;;
39156;SDS011;24889;42.424;25.604;2022-11-21T04:42:33;8.07;;;4.28;;
39156;SDS011;24889;42.424;25.604;2022-11-21T04:44:59;16.03;;;5.33;;
39156;SDS011;24889;42.424;25.604;2022-11-21T04:47:24;11.70;;;4.47;;
39156;SDS011;24889;42.424;25.604;2022-11-21T04:49:49;10.50;;;4.40;;
39156;SDS011;24889;42.424;25.604;2022-11-21T04:52:15;10.80;;;3.80;;
39156;SDS011;24889;42.424;25.604;2022-11-21T04:54:40;25.57;;;8.27;;
39156;SDS011;24889;42.424;25.604;2022-11-21T04:57:05;17.80;;;9.03;;
39156;SDS011;24889;42.424;25.604;2022-11-21T04:59:30;22.23;;;6.37;;
39156;SDS011;24889;42.424;25.604;2022-11-21T05:01:56;15.60;;;6.47;;
39156;SDS011;24889;42.424;25.604;2022-11-21T05:04:21;20.37;;;6.40;;
39156;SDS011;24889;42.424;25.604;2022-11-21T05:06:46;34.63;;;15.17;;
39156;SDS011;24889;42.424;25.604;2022-11-21T05:09:12;96.67;;;43.67;;
39156;SDS011;24889;42.424;25.604;2022-11-21T05:11:37;57.37;;;27.93;;
39156;SDS011;24889;42.424;25.604;2022-11-21T05:14:21;22.90;;;11.95;;
39156;SDS011;24889;42.424;25.604;2022-11-21T05:16:46;21.67;;;9.30;;
39156;SDS011;24889;42.424;25.604;2022-11-21T05:19:11;20.73;;;9.20;;
39156;SDS011;24889;42.424;25.604;2022-11-21T05:21:36;22.37;;;7.03;;
39156;SDS011;24889;42.424;25.604;2022-11-21T05:24:02;15.80;;;5.27;;
39156;SDS011;24889;42.424;25.604;2022-11-21T05:26:27;16.87;;;6.03;;
39156;SDS011;24889;42.424;25.604;2022-11-21T05:28:52;24.57;;;7.73;;
39156;SDS011;24889;42.424;25.604;2022-11-21T05:31:18;13.83;;;6.80;;
39156;SDS011;24889;42.424;25.604;2022-11-21T05:33:43;29.80;;;13.13;;
39156;SDS011;24889;42.424;25.604;2022-11-21T05:36:08;39.47;;;15.37;;
39156;SDS011;24889;42.424;25.604;2022-11-21T05:38:33;35.43;;;15.53;;
39156;SDS011;24889;42.424;25.604;2022-11-21T05:40:59;46.53;;;17.30;;
39156;SDS011;24889;42.424;25.604;2022-11-21T05:43:24;27.53;;;11.23;;
39156;SDS011;24889;42.424;25.604;2022-11-21T05:46:08;27.73;;;12.55;;
39156;SDS011;24889;42.424;25.604;2022-11-21T05:48:33;39.70;;;19.90;;
39156;SDS011;24889;42.424;25.604;2022-11-21T05:51:00;58.05;;;25.58;;
39156;SDS011;24889;42.424;25.604;2022-11-21T05:53:26;48.27;;;19.17;;
39156;SDS011;24889;42.424;25.604;2022-11-21T05:55:51;30.03;;;6.00;;
39156;SDS011;24889;42.424;25.604;2022-11-21T05:58:16;40.47;;;13.57;;
39156;SDS011;24889;42.424;25.604;2022-11-21T06:00:42;57.30;;;17.00;;
39156;SDS011;24889;42.424;25.604;2022-11-21T06:03:08;93.27;;;43.97;;
39156;SDS011;24889;42.424;25.604;2022-11-21T06:06:05;31.42;;;10.98;;
39156;SDS011;24889;42.424;25.604;2022-11-21T06:08:32;26.35;;;8.73;;
39156;SDS011;24889;42.424;25.604;2022-11-21T06:10:58;21.05;;;7.35;;
39156;SDS011;24889;42.424;25.604;2022-11-21T06:13:23;40.90;;;14.70;;
39156;SDS011;24889;42.424;25.604;2022-11-21T06:15:53;77.13;;;33.63;;
39156;SDS011;24889;42.424;25.604;2022-11-21T06:18:21;27.20;;;8.88;;
39156;SDS011;24889;42.424;25.604;2022-11-21T06:20:46;33.22;;;13.05;;
39156;SDS011;24889;42.424;25.604;2022-11-21T06:23:12;27.37;;;9.20;;
39156;SDS011;24889;42.424;25.604;2022-11-21T06:25:37;37.47;;;12.10;;
39156;SDS011;24889;42.424;25.604;2022-11-21T06:28:02;33.30;;;11.37;;
39156;SDS011;24889;42.424;25.604;2022-11-21T06:30:28;28.60;;;10.30;;
39156;SDS011;24889;42.424;25.604;2022-11-21T06:32:53;31.13;;;9.87;;
39156;SDS011;24889;42.424;25.604;2022-11-21T06:35:18;28.90;;;11.33;;
39156;SDS011;24889;42.424;25.604;2022-11-21T06:37:44;35.33;;;14.73;;
39156;SDS011;24889;42.424;25.604;2022-11-21T06:40:09;38.97;;;15.40;;
39156;SDS011;24889;42.424;25.604;2022-11-21T06:42:35;28.17;;;11.85;;
39156;SDS011;24889;42.424;25.604;2022-11-21T06:45:00;26.40;;;9.50;;
39156;SDS011;24889;42.424;25.604;2022-11-21T06:47:25;20.37;;;6.23;;
39156;SDS011;24889;42.424;25.604;2022-11-21T06:49:51;20.50;;;7.77;;
39156;SDS011;24889;42.424;25.604;2022-11-21T06:52:16;19.37;;;5.67;;
39156;SDS011;24889;42.424;25.604;2022-11-21T06:54:41;16.83;;;6.17;;
39156;SDS011;24889;42.424;25.604;2022-11-21T06:57:06;29.90;;;7.00;;
39156;SDS011;24889;42.424;25.604;2022-11-21T06:59:32;17.37;;;4.73;;
39156;SDS011;24889;42.424;25.604;2022-11-21T07:01:57;22.70;;;5.00;;
39156;SDS011;24889;42.424;25.604;2022-11-21T07:04:22;19.30;;;5.57;;
39156;SDS011;24889;42.424;25.604;2022-11-21T07:06:48;17.00;;;6.47;;
39156;SDS011;24889;42.424;25.604;2022-11-21T07:09:13;33.20;;;6.30;;
39156;SDS011;24889;42.424;25.604;2022-11-21T07:14:03;18.35;;;5.35;;
39156;SDS011;24889;42.424;25.604;2022-11-21T07:18:56;20.45;;;5.00;;
39156;SDS011;24889;42.424;25.604;2022-11-21T07:21:22;21.17;;;5.82;;
39156;SDS011;24889;42.424;25.604;2022-11-21T07:23:48;22.77;;;6.38;;
39156;SDS011;24889;42.424;25.604;2022-11-21T07:26:13;24.97;;;4.70;;
39156;SDS011;24889;42.424;25.604;2022-11-21T07:28:39;18.88;;;6.18;;
39156;SDS011;24889;42.424;25.604;2022-11-21T07:31:04;18.23;;;4.97;;
39156;SDS011;24889;42.424;25.604;2022-11-21T07:33:29;17.43;;;4.17;;
39156;SDS011;24889;42.424;25.604;2022-11-21T07:35:55;15.00;;;4.20;;
39156;SDS011;24889;42.424;25.604;2022-11-21T07:38:21;18.83;;;3.55;;
39156;SDS011;24889;42.424;25.604;2022-11-21T07:40:46;14.30;;;4.20;;
39156;SDS011;24889;42.424;25.604;2022-11-21T07:43:12;16.80;;;3.93;;
39156;SDS011;24889;42.424;25.604;2022-11-21T07:45:37;19.50;;;3.97;;
39156;SDS011;24889;42.424;25.604;2022-11-21T07:48:04;13.23;;;4.27;;
39156;SDS011;24889;42.424;25.604;2022-11-21T07:50:29;16.38;;;4.43;;
39156;SDS011;24889;42.424;25.604;2022-11-21T07:57:45;21.75;;;3.97;;
39156;SDS011;24889;42.424;25.604;2022-11-21T08:00:11;15.00;;;4.87;;
39156;SDS011;24889;42.424;25.604;2022-11-21T08:02:36;17.45;;;4.00;;
39156;SDS011;24889;42.424;25.604;2022-11-21T08:05:01;20.55;;;4.38;;
39156;SDS011;24889;42.424;25.604;2022-11-21T08:09:52;18.77;;;4.82;;
39156;SDS011;24889;42.424;25.604;2022-11-21T08:14:42;15.03;;;3.73;;
39156;SDS011;24889;42.424;25.604;2022-11-21T08:17:08;19.00;;;3.78;;
39156;SDS011;24889;42.424;25.604;2022-11-21T08:19:34;18.27;;;4.47;;
39156;SDS011;24889;42.424;25.604;2022-11-21T08:21:59;20.08;;;4.25;;
39156;SDS011;24889;42.424;25.604;2022-11-21T08:24:25;15.70;;;3.20;;
39156;SDS011;24889;42.424;25.604;2022-11-21T08:26:50;17.23;;;3.43;;
39156;SDS011;24889;42.424;25.604;2022-11-21T08:29:16;16.95;;;3.88;;
39156;SDS011;24889;42.424;25.604;2022-11-21T08:31:41;15.43;;;4.03;;
39156;SDS011;24889;42.424;25.604;2022-11-21T08:34:07;15.60;;;3.88;;
39156;SDS011;24889;42.424;25.604;2022-11-21T08:36:32;14.93;;;3.20;;
39156;SDS011;24889;42.424;25.604;2022-11-21T08:38:59;19.63;;;4.33;;
39156;SDS011;24889;42.424;25.604;2022-11-21T08:41:24;12.57;;;3.22;;
39156;SDS011;24889;42.424;25.604;2022-11-21T08:44:08;21.88;;;3.17;;
39156;SDS011;24889;42.424;25.604;2022-11-21T08:46:33;17.00;;;3.60;;
39156;SDS011;24889;42.424;25.604;2022-11-21T08:49:01;12.18;;;2.97;;
39156;SDS011;24889;42.424;25.604;2022-11-21T08:51:27;18.88;;;2.50;;
39156;SDS011;24889;42.424;25.604;2022-11-21T08:53:52;10.10;;;2.43;;
39156;SDS011;24889;42.424;25.604;2022-11-21T08:56:18;15.32;;;3.00;;
39156;SDS011;24889;42.424;25.604;2022-11-21T08:58:43;16.13;;;3.53;;
39156;SDS011;24889;42.424;25.604;2022-11-21T09:01:08;9.37;;;2.70;;
39156;SDS011;24889;42.424;25.604;2022-11-21T09:03:33;11.10;;;2.87;;
39156;SDS011;24889;42.424;25.604;2022-11-21T09:05:59;10.98;;;2.55;;
39156;SDS011;24889;42.424;25.604;2022-11-21T09:08:24;8.20;;;2.58;;
39156;SDS011;24889;42.424;25.604;2022-11-21T09:10:50;10.00;;;2.35;;
39156;SDS011;24889;42.424;25.604;2022-11-21T09:13:16;10.60;;;2.47;;
39156;SDS011;24889;42.424;25.604;2022-11-21T09:15:41;10.45;;;2.42;;
39156;SDS011;24889;42.424;25.604;2022-11-21T09:18:25;15.88;;;2.67;;
39156;SDS011;24889;42.424;25.604;2022-11-21T09:20:50;8.33;;;2.57;;
39156;SDS011;24889;42.424;25.604;2022-11-21T09:23:16;11.13;;;2.13;;
39156;SDS011;24889;42.424;25.604;2022-11-21T09:25:41;14.25;;;3.58;;
39156;SDS011;24889;42.424;25.604;2022-11-21T09:28:07;8.27;;;2.30;;
39156;SDS011;24889;42.424;25.604;2022-11-21T09:32:59;10.23;;;2.57;;
39156;SDS011;24889;42.424;25.604;2022-11-21T09:37:49;8.23;;;2.43;;
39156;SDS011;24889;42.424;25.604;2022-11-21T09:45:25;7.60;;;1.35;;
39156;SDS011;24889;42.424;25.604;2022-11-21T09:47:54;14.35;;;1.75;;
39156;SDS011;24889;42.424;25.604;2022-11-21T09:50:33;5.50;;;1.63;;
39156;SDS011;24889;42.424;25.604;2022-11-21T09:53:08;13.63;;;1.65;;
39156;SDS011;24889;42.424;25.604;2022-11-21T09:58:17;4.57;;;1.77;;
39156;SDS011;24889;42.424;25.604;2022-11-21T10:00:43;9.00;;;2.35;;
39156;SDS011;24889;42.424;25.604;2022-11-21T10:03:09;8.30;;;1.70;;
39156;SDS011;24889;42.424;25.604;2022-11-21T10:08:04;6.17;;;1.83;;
39156;SDS011;24889;42.424;25.604;2022-11-21T10:15:49;4.68;;;1.73;;
39156;SDS011;24889;42.424;25.604;2022-11-21T10:23:37;6.80;;;1.95;;
39156;SDS011;24889;42.424;25.604;2022-11-21T10:26:14;5.85;;;1.65;;
39156;SDS011;24889;42.424;25.604;2022-11-21T10:28:49;9.65;;;2.42;;
39156;SDS011;24889;42.424;25.604;2022-11-21T10:31:15;7.75;;;2.20;;
39156;SDS011;24889;42.424;25.604;2022-11-21T10:33:41;9.13;;;1.65;;
39156;SDS011;24889;42.424;25.604;2022-11-21T10:38:50;11.10;;;2.25;;
39156;SDS011;24889;42.424;25.604;2022-11-21T10:43:53;5.55;;;1.45;;
39156;SDS011;24889;42.424;25.604;2022-11-21T10:46:38;4.93;;;1.35;;
39156;SDS011;24889;42.424;25.604;2022-11-21T10:49:03;7.33;;;1.77;;
39156;SDS011;24889;42.424;25.604;2022-11-21T10:54:03;4.72;;;1.63;;
39156;SDS011;24889;42.424;25.604;2022-11-21T10:56:47;8.23;;;1.77;;
39156;SDS011;24889;42.424;25.604;2022-11-21T10:59:18;7.03;;;1.53;;
39156;SDS011;24889;42.424;25.604;2022-11-21T11:01:52;8.68;;;1.70;;
39156;SDS011;24889;42.424;25.604;2022-11-21T11:04:18;6.15;;;1.60;;
39156;SDS011;24889;42.424;25.604;2022-11-21T11:06:45;7.53;;;1.70;;
39156;SDS011;24889;42.424;25.604;2022-11-21T11:09:30;7.18;;;1.95;;
39156;SDS011;24889;42.424;25.604;2022-11-21T11:12:56;5.28;;;1.27;;
39156;SDS011;24889;42.424;25.604;2022-11-21T11:15:15;5.47;;;1.25;;
39156;SDS011;24889;42.424;25.604;2022-11-21T11:17:41;6.40;;;1.20;;
39156;SDS011;24889;42.424;25.604;2022-11-21T11:20:27;3.40;;;1.37;;
39156;SDS011;24889;42.424;25.604;2022-11-21T11:22:51;8.95;;;2.55;;
39156;SDS011;24889;42.424;25.604;2022-11-21T11:25:16;5.00;;;1.60;;
39156;SDS011;24889;42.424;25.604;2022-11-21T11:27:42;5.47;;;1.47;;
39156;SDS011;24889;42.424;25.604;2022-11-21T11:30:07;6.00;;;1.33;;
39156;SDS011;24889;42.424;25.604;2022-11-21T11:32:35;4.63;;;1.50;;
39156;SDS011;24889;42.424;25.604;2022-11-21T11:35:23;7.20;;;1.75;;
39156;SDS011;24889;42.424;25.604;2022-11-21T11:37:56;2.58;;;1.30;;
39156;SDS011;24889;42.424;25.604;2022-11-21T11:40:24;6.95;;;1.15;;
39156;SDS011;24889;42.424;25.604;2022-11-21T11:42:55;3.50;;;1.70;;
39156;SDS011;24889;42.424;25.604;2022-11-21T11:48:28;5.25;;;1.38;;
39156;SDS011;24889;42.424;25.604;2022-11-21T11:51:00;10.83;;;1.73;;
39156;SDS011;24889;42.424;25.604;2022-11-21T11:53:38;10.13;;;3.88;;
39156;SDS011;24889;42.424;25.604;2022-11-21T11:58:40;9.03;;;2.37;;
39156;SDS011;24889;42.424;25.604;2022-11-21T12:01:09;8.70;;;1.40;;
39156;SDS011;24889;42.424;25.604;2022-11-21T12:03:39;4.22;;;1.50;;
39156;SDS011;24889;42.424;25.604;2022-11-21T12:06:08;10.82;;;1.80;;
39156;SDS011;24889;42.424;25.604;2022-11-21T12:08:43;4.15;;;1.55;;
39156;SDS011;24889;42.424;25.604;2022-11-21T12:11:32;3.72;;;2.05;;
39156;SDS011;24889;42.424;25.604;2022-11-21T12:14:40;8.05;;;1.85;;
39156;SDS011;24889;42.424;25.604;2022-11-21T12:17:24;5.72;;;1.65;;
39156;SDS011;24889;42.424;25.604;2022-11-21T12:19:51;4.57;;;1.67;;
39156;SDS011;24889;42.424;25.604;2022-11-21T12:22:18;4.97;;;1.40;;
39156;SDS011;24889;42.424;25.604;2022-11-21T12:24:43;7.13;;;1.87;;
39156;SDS011;24889;42.424;25.604;2022-11-21T12:30:03;5.70;;;1.48;;
39156;SDS011;24889;42.424;25.604;2022-11-21T12:32:37;5.35;;;2.30;;
39156;SDS011;24889;42.424;25.604;2022-11-21T12:45:36;9.48;;;1.77;;
39156;SDS011;24889;42.424;25.604;2022-11-21T12:53:51;6.55;;;1.75;;
39156;SDS011;24889;42.424;25.604;2022-11-21T12:56:42;5.20;;;1.23;;
39156;SDS011;24889;42.424;25.604;2022-11-21T12:59:10;6.78;;;1.75;;
39156;SDS011;24889;42.424;25.604;2022-11-21T13:01:38;6.40;;;1.63;;
39156;SDS011;24889;42.424;25.604;2022-11-21T13:04:08;8.15;;;1.75;;
39156;SDS011;24889;42.424;25.604;2022-11-21T13:06:39;5.65;;;1.92;;
39156;SDS011;24889;42.424;25.604;2022-11-21T13:09:06;3.83;;;1.67;;
39156;SDS011;24889;42.424;25.604;2022-11-21T13:11:45;6.25;;;1.70;;
39156;SDS011;24889;42.424;25.604;2022-11-21T13:19:40;6.10;;;1.40;;
39156;SDS011;24889;42.424;25.604;2022-11-21T13:22:06;5.90;;;2.05;;
39156;SDS011;24889;42.424;25.604;2022-11-21T13:27:23;7.57;;;1.53;;
39156;SDS011;24889;42.424;25.604;2022-11-21T13:30:23;4.72;;;1.33;;
39156;SDS011;24889;42.424;25.604;2022-11-21T13:32:48;5.95;;;2.15;;
39156;SDS011;24889;42.424;25.604;2022-11-21T13:40:56;7.22;;;2.03;;
39156;SDS011;24889;42.424;25.604;2022-11-21T13:45:37;4.32;;;1.40;;
39156;SDS011;24889;42.424;25.604;2022-11-21T13:55:58;4.22;;;1.55;;
39156;SDS011;24889;42.424;25.604;2022-11-21T13:58:29;12.05;;;1.92;;
39156;SDS011;24889;42.424;25.604;2022-11-21T14:09:03;5.40;;;1.55;;
39156;SDS011;24889;42.424;25.604;2022-11-21T14:11:31;6.00;;;1.27;;
39156;SDS011;24889;42.424;25.604;2022-11-21T14:14:00;8.05;;;1.20;;
39156;SDS011;24889;42.424;25.604;2022-11-21T14:16:27;1.85;;;1.20;;
39156;SDS011;24889;42.424;25.604;2022-11-21T14:18:55;9.30;;;1.92;;
39156;SDS011;24889;42.424;25.604;2022-11-21T14:21:25;6.28;;;3.20;;
39156;SDS011;24889;42.424;25.604;2022-11-21T14:23:55;3.90;;;1.45;;
39156;SDS011;24889;42.424;25.604;2022-11-21T14:26:21;7.03;;;3.72;;
39156;SDS011;24889;42.424;25.604;2022-11-21T14:28:49;7.95;;;4.28;;
39156;SDS011;24889;42.424;25.604;2022-11-21T14:31:14;7.27;;;3.47;;
39156;SDS011;24889;42.424;25.604;2022-11-21T14:33:43;10.73;;;2.40;;
39156;SDS011;24889;42.424;25.604;2022-11-21T14:36:12;3.88;;;2.25;;
39156;SDS011;24889;42.424;25.604;2022-11-21T14:43:49;10.88;;;5.60;;
39156;SDS011;24889;42.424;25.604;2022-11-21T14:46:15;13.52;;;7.88;;
39156;SDS011;24889;42.424;25.604;2022-11-21T14:48:43;12.20;;;7.40;;
39156;SDS011;24889;42.424;25.604;2022-11-21T14:51:08;7.57;;;4.73;;
39156;SDS011;24889;42.424;25.604;2022-11-21T14:53:35;5.15;;;3.35;;
39156;SDS011;24889;42.424;25.604;2022-11-21T14:56:03;7.78;;;4.53;;
39156;SDS011;24889;42.424;25.604;2022-11-21T14:58:29;8.43;;;3.97;;
39156;SDS011;24889;42.424;25.604;2022-11-21T15:01:28;5.50;;;3.03;;
39156;SDS011;24889;42.424;25.604;2022-11-21T15:03:55;10.57;;;2.38;;
39156;SDS011;24889;42.424;25.604;2022-11-21T15:06:21;5.80;;;2.50;;
39156;SDS011;24889;42.424;25.604;2022-11-21T15:08:47;6.60;;;2.60;;
39156;SDS011;24889;42.424;25.604;2022-11-21T15:11:12;7.83;;;2.70;;
39156;SDS011;24889;42.424;25.604;2022-11-21T15:13:38;2.97;;;1.52;;
39156;SDS011;24889;42.424;25.604;2022-11-21T15:16:04;8.25;;;2.08;;
39156;SDS011;24889;42.424;25.604;2022-11-21T15:18:29;5.30;;;2.60;;
39156;SDS011;24889;42.424;25.604;2022-11-21T15:20:56;6.97;;;2.85;;
39156;SDS011;24889;42.424;25.604;2022-11-21T15:23:29;11.43;;;4.82;;
39156;SDS011;24889;42.424;25.604;2022-11-21T15:25:55;6.18;;;2.25;;
39156;SDS011;24889;42.424;25.604;2022-11-21T15:28:20;5.10;;;2.22;;
39156;SDS011;24889;42.424;25.604;2022-11-21T15:30:46;15.50;;;2.43;;
39156;SDS011;24889;42.424;25.604;2022-11-21T15:33:15;2.73;;;1.40;;
39156;SDS011;24889;42.424;25.604;2022-11-21T15:38:20;9.03;;;1.83;;
39156;SDS011;24889;42.424;25.604;2022-11-21T15:40:55;4.75;;;1.95;;
39156;SDS011;24889;42.424;25.604;2022-11-21T15:43:37;10.10;;;1.80;;
39156;SDS011;24889;42.424;25.604;2022-11-21T15:46:10;4.70;;;1.55;;
39156;SDS011;24889;42.424;25.604;2022-11-21T15:48:37;9.00;;;1.98;;
39156;SDS011;24889;42.424;25.604;2022-11-21T15:51:02;2.63;;;1.83;;
39156;SDS011;24889;42.424;25.604;2022-11-21T15:53:28;6.30;;;1.80;;
39156;SDS011;24889;42.424;25.604;2022-11-21T15:55:53;8.00;;;2.23;;
39156;SDS011;24889;42.424;25.604;2022-11-21T15:58:18;4.13;;;1.40;;
39156;SDS011;24889;42.424;25.604;2022-11-21T16:00:44;2.33;;;1.83;;
39156;SDS011;24889;42.424;25.604;2022-11-21T16:03:09;3.50;;;1.87;;
39156;SDS011;24889;42.424;25.604;2022-11-21T16:05:34;2.63;;;1.60;;
39156;SDS011;24889;42.424;25.604;2022-11-21T16:07:59;2.53;;;1.30;;
39156;SDS011;24889;42.424;25.604;2022-11-21T16:10:25;6.87;;;2.63;;
39156;SDS011;24889;42.424;25.604;2022-11-21T16:12:50;3.07;;;1.53;;
39156;SDS011;24889;42.424;25.604;2022-11-21T16:15:15;4.87;;;1.97;;
39156;SDS011;24889;42.424;25.604;2022-11-21T16:17:41;2.50;;;1.83;;
39156;SDS011;24889;42.424;25.604;2022-11-21T16:20:06;7.47;;;2.57;;
39156;SDS011;24889;42.424;25.604;2022-11-21T16:22:31;2.47;;;1.50;;
39156;SDS011;24889;42.424;25.604;2022-11-21T16:25:00;4.15;;;1.60;;
39156;SDS011;24889;42.424;25.604;2022-11-21T16:27:26;5.15;;;1.45;;
39156;SDS011;24889;42.424;25.604;2022-11-21T16:29:51;5.28;;;1.75;;
39156;SDS011;24889;42.424;25.604;2022-11-21T16:32:17;10.60;;;2.67;;